Time;durP1;ratioP1;P1;durP2;ratioP2;P2;SDS_P1;SDS_P2;PMS_P1;PMS_P2;Temp;Humidity;BMP_temperature;BMP_pressure;BME280_temperature;BME280_humidity;BME280_pressure;Samples;Min_cycle;Max_cycle;Signal;HPM_P1;HPM_P2
2021/06/25 00:01:49;;;;;;;1.50;1.40;;;;;;;23.20;45.88;101849.50;5033113;28;20186;-69
2021/06/25 00:04:14;;;;;;;1.87;1.77;;;;;;;23.20;46.08;101841.66;5033365;28;20197;-70
2021/06/25 00:06:39;;;;;;;2.20;1.60;;;;;;;23.20;46.02;101834.66;5032776;28;20194;-70
2021/06/25 00:09:05;;;;;;;2.83;1.90;;;;;;;23.20;46.19;101829.44;5032484;28;20206;-69
2021/06/25 00:11:30;;;;;;;2.70;2.30;;;;;;;23.20;45.65;101821.56;5032995;28;20328;-69
2021/06/25 00:13:55;;;;;;;2.50;1.73;;;;;;;23.20;46.13;101824.19;5032836;28;20202;-70
2021/06/25 00:16:21;;;;;;;1.97;1.70;;;;;;;23.20;46.10;101821.56;5033005;28;20186;-69
2021/06/25 00:18:46;;;;;;;3.33;1.83;;;;;;;23.19;46.05;101832.94;5032842;28;20179;-69
2021/06/25 00:21:11;;;;;;;2.17;1.60;;;;;;;23.19;46.05;101832.06;5032758;28;20209;-69
2021/06/25 00:23:37;;;;;;;2.60;1.47;;;;;;;23.19;46.04;101834.66;5033154;28;20190;-69
2021/06/25 00:26:02;;;;;;;1.97;1.60;;;;;;;23.18;45.97;101836.41;5032777;28;20178;-70
2021/06/25 00:28:27;;;;;;;2.27;1.73;;;;;;;23.18;46.11;101846.88;5031606;28;20277;-69
2021/06/25 00:30:53;;;;;;;3.20;1.83;;;;;;;23.19;45.99;101851.22;5032428;28;20722;-70
2021/06/25 00:33:18;;;;;;;2.50;1.87;;;;;;;23.18;46.31;101848.59;5032835;28;20183;-70
2021/06/25 00:35:44;;;;;;;2.27;1.70;;;;;;;23.18;46.32;101852.09;5032538;28;20186;-69
2021/06/25 00:38:09;;;;;;;1.83;1.70;;;;;;;23.19;46.32;101848.63;5032424;28;20182;-70
2021/06/25 00:40:35;;;;;;;2.17;1.87;;;;;;;23.18;46.13;101857.31;5030888;28;20199;-71
2021/06/25 00:43:01;;;;;;;2.50;1.87;;;;;;;23.18;46.01;101852.09;5031330;28;20182;-69
2021/06/25 00:45:27;;;;;;;1.87;1.63;;;;;;;23.18;46.27;101851.22;5032854;28;20189;-69
2021/06/25 00:47:53;;;;;;;2.03;1.73;;;;;;;23.18;46.15;101854.72;5032642;28;20198;-70
2021/06/25 00:50:22;;;;;;;2.17;1.63;;;;;;;23.17;46.09;101858.22;5032108;28;20236;-70
2021/06/25 00:52:55;;;;;;;1.80;1.70;;;;;;;23.18;46.35;101869.50;5031479;28;20189;-71
2021/06/25 00:55:22;;;;;;;2.00;1.80;;;;;;;23.17;46.10;101863.44;5032526;28;20190;-70
2021/06/25 00:57:48;;;;;;;1.83;1.73;;;;;;;23.17;46.22;101857.34;5032296;28;20248;-70
2021/06/25 01:00:14;;;;;;;2.13;1.77;;;;;;;23.17;46.26;101857.34;5032350;28;20203;-70
2021/06/25 01:02:40;;;;;;;2.43;1.80;;;;;;;23.16;46.44;101851.22;5032611;28;20269;-70
2021/06/25 01:05:08;;;;;;;2.23;2.00;;;;;;;23.15;46.03;101851.28;5037254;28;20623;-70
2021/06/25 01:07:34;;;;;;;2.77;1.90;;;;;;;23.16;46.31;101864.31;5033126;28;20226;-70
2021/06/25 01:10:04;;;;;;;2.90;1.80;;;;;;;23.16;46.18;101858.25;5032289;28;20222;-69
2021/06/25 01:12:29;;;;;;;2.60;2.10;;;;;;;23.15;46.45;101853.91;5031769;28;20190;-69
2021/06/25 01:14:55;;;;;;;1.90;1.77;;;;;;;23.14;46.04;101847.78;5032077;28;20635;-69
2021/06/25 01:17:38;;;;;;;2.67;1.80;;;;;;;23.15;46.11;101851.28;5030129;28;20256;-70
2021/06/25 01:20:07;;;;;;;2.93;1.70;;;;;;;23.14;46.57;101845.19;5032937;28;20198;-69
2021/06/25 01:22:39;;;;;;;1.83;1.57;;;;;;;23.14;46.32;101855.63;5031676;28;20190;-69
2021/06/25 01:25:19;;;;;;;1.87;1.67;;;;;;;23.14;46.37;101855.63;5031999;28;20294;-69
2021/06/25 01:27:47;;;;;;;2.27;1.60;;;;;;;23.14;46.18;101849.53;5031522;28;20236;-70
2021/06/25 01:30:20;;;;;;;1.90;1.80;;;;;;;23.13;46.09;101851.31;5030885;28;20280;-70
2021/06/25 01:32:46;;;;;;;1.97;1.77;;;;;;;23.12;46.33;101852.19;5031777;28;20197;-70
2021/06/25 01:35:13;;;;;;;2.00;1.70;;;;;;;23.12;46.31;101853.94;5031566;28;20265;-69
2021/06/25 01:37:39;;;;;;;1.70;1.60;;;;;;;23.13;46.08;101853.03;5031333;28;20175;-69
2021/06/25 01:40:06;;;;;;;2.77;1.90;;;;;;;23.12;46.10;101862.66;5029404;28;20194;-71
2021/06/25 01:42:33;;;;;;;1.83;1.70;;;;;;;23.12;46.23;101861.78;5021030;28;20183;-70
2021/06/25 01:45:04;;;;;;;2.40;1.90;;;;;;;23.11;46.18;101858.28;5024372;28;20209;-71
2021/06/25 01:47:30;;;;;;;2.63;1.73;;;;;;;23.12;46.31;101859.16;5031525;28;20258;-69
2021/06/25 01:49:55;;;;;;;2.07;1.80;;;;;;;23.11;46.06;101855.69;5031152;28;20214;-71
2021/06/25 01:52:20;;;;;;;2.03;1.67;;;;;;;23.11;46.07;101858.28;5030014;28;20202;-69
2021/06/25 01:54:47;;;;;;;3.03;2.00;;;;;;;23.10;46.31;101853.97;5031572;28;20188;-70
2021/06/25 01:57:13;;;;;;;4.00;2.13;;;;;;;23.10;46.22;101850.47;5029836;28;20206;-70
2021/06/25 01:59:38;;;;;;;2.53;1.50;;;;;;;23.10;46.12;101855.69;5030455;28;20256;-71
2021/06/25 02:02:03;;;;;;;3.07;2.07;;;;;;;23.09;46.06;101846.13;5031013;28;20592;-72
2021/06/25 02:04:29;;;;;;;1.83;1.70;;;;;;;23.09;46.37;101846.13;5031088;28;20625;-70
2021/06/25 02:06:54;;;;;;;2.80;1.77;;;;;;;23.09;46.25;101840.91;5031003;28;20197;-71
2021/06/25 02:09:19;;;;;;;3.13;1.80;;;;;;;23.09;46.15;101843.53;5030826;28;20217;-70
2021/06/25 02:11:45;;;;;;;2.07;1.60;;;;;;;23.08;46.75;101840.06;5030762;28;20178;-71
2021/06/25 02:14:10;;;;;;;3.47;1.67;;;;;;;23.09;46.14;101846.13;5030714;28;20182;-71
2021/06/25 02:16:35;;;;;;;2.00;1.80;;;;;;;23.09;46.26;101846.13;5030758;28;20217;-71
2021/06/25 02:19:01;;;;;;;2.60;1.70;;;;;;;23.08;46.15;101844.41;5030712;28;20179;-68
2021/06/25 02:21:26;;;;;;;2.20;1.90;;;;;;;23.08;46.18;101839.19;5030613;28;20198;-69
2021/06/25 02:23:52;;;;;;;1.87;1.73;;;;;;;23.07;46.18;101838.31;5030591;28;20170;-68
2021/06/25 02:26:17;;;;;;;2.73;2.10;;;;;;;23.07;46.30;101833.09;5030309;28;20214;-70
2021/06/25 02:28:42;;;;;;;2.10;1.90;;;;;;;23.08;46.43;101831.34;5029331;28;20186;-70
2021/06/25 02:31:08;;;;;;;3.07;2.10;;;;;;;23.07;46.33;101838.31;5030238;28;20653;-70
2021/06/25 02:33:33;;;;;;;2.50;2.10;;;;;;;23.06;46.26;101833.13;5029235;28;20182;-70
2021/06/25 02:35:58;;;;;;;2.70;1.90;;;;;;;23.06;46.13;101825.28;5030302;28;20198;-69
2021/06/25 02:38:23;;;;;;;2.67;2.13;;;;;;;23.07;45.99;101824.41;5030282;28;20186;-69
2021/06/25 02:40:49;;;;;;;2.10;1.87;;;;;;;23.05;46.16;101819.19;5029976;28;20198;-69
2021/06/25 02:43:14;;;;;;;2.43;1.87;;;;;;;23.05;46.35;101820.94;5028837;28;20186;-68
2021/06/25 02:45:39;;;;;;;2.03;1.70;;;;;;;23.05;46.26;101828.78;5030274;28;20189;-68
2021/06/25 02:48:06;;;;;;;2.87;1.90;;;;;;;23.05;46.02;101828.78;5010590;28;20183;-68
2021/06/25 02:50:31;;;;;;;3.87;2.00;;;;;;;23.04;46.28;101827.06;5022216;28;20218;-68
2021/06/25 02:52:56;;;;;;;2.27;1.93;;;;;;;23.03;46.34;101820.09;5030363;28;20559;-68
2021/06/25 02:55:21;;;;;;;2.90;1.90;;;;;;;23.04;45.99;101820.09;5030374;28;20557;-68
2021/06/25 02:57:47;;;;;;;2.20;2.00;;;;;;;23.04;46.02;101811.38;5030064;28;20669;-69
2021/06/25 03:00:15;;;;;;;3.83;2.10;;;;;;;23.04;46.04;101809.63;5030001;28;20562;-69
2021/06/25 03:02:41;;;;;;;2.07;1.90;;;;;;;23.02;45.96;101811.38;5029911;28;20216;-68
2021/06/25 03:05:09;;;;;;;2.07;1.83;;;;;;;23.02;46.15;101806.16;5030468;28;20210;-69
2021/06/25 03:07:34;;;;;;;2.77;1.83;;;;;;;23.03;46.27;101794.84;5029922;28;20198;-69
2021/06/25 03:09:59;;;;;;;2.30;2.10;;;;;;;23.02;46.18;101793.09;5025412;28;20289;-69
2021/06/25 03:12:24;;;;;;;2.83;2.00;;;;;;;23.03;46.32;101792.22;5029874;28;20665;-70
2021/06/25 03:14:50;;;;;;;2.13;1.90;;;;;;;23.02;46.24;101803.53;5028518;28;20235;-69
2021/06/25 03:17:15;;;;;;;4.73;1.97;;;;;;;23.02;46.29;101800.94;5029443;28;20185;-69
2021/06/25 03:19:40;;;;;;;3.13;1.87;;;;;;;23.02;46.25;101803.53;5029666;28;20273;-70
2021/06/25 03:22:06;;;;;;;3.33;2.00;;;;;;;23.03;46.21;101807.03;5030055;28;20186;-69
2021/06/25 03:24:31;;;;;;;2.13;1.93;;;;;;;23.01;46.13;101801.81;5029880;28;20174;-69
2021/06/25 03:26:56;;;;;;;2.23;2.03;;;;;;;23.02;46.13;101802.69;5029524;28;20701;-70
2021/06/25 03:29:22;;;;;;;2.00;1.90;;;;;;;23.01;46.52;101800.97;5029587;28;20210;-70
2021/06/25 03:31:47;;;;;;;2.47;2.00;;;;;;;23.02;46.28;101806.16;5029136;28;20178;-70
2021/06/25 03:34:12;;;;;;;2.40;2.20;;;;;;;23.01;45.93;101807.06;5030260;28;20244;-70
2021/06/25 03:36:37;;;;;;;2.10;1.90;;;;;;;23.00;45.85;101807.94;5034756;28;20702;-70
2021/06/25 03:39:04;;;;;;;4.50;1.90;;;;;;;23.00;46.27;101807.06;5028814;28;20232;-70
2021/06/25 03:41:29;;;;;;;2.77;2.00;;;;;;;23.00;46.20;101815.78;5029806;28;20210;-70
2021/06/25 03:43:55;;;;;;;2.13;1.93;;;;;;;23.00;46.23;101809.69;5029894;28;20183;-70
2021/06/25 03:46:22;;;;;;;2.10;1.90;;;;;;;23.00;45.98;101809.69;5029729;28;20174;-69
2021/06/25 03:48:47;;;;;;;3.67;1.73;;;;;;;22.99;46.26;101810.59;5029379;28;20178;-69
2021/06/25 03:51:12;;;;;;;2.37;2.10;;;;;;;22.99;46.00;101808.84;5029482;28;20210;-70
2021/06/25 03:53:40;;;;;;;2.53;2.10;;;;;;;22.99;46.09;101805.34;5029662;28;20178;-70
2021/06/25 03:56:11;;;;;;;4.60;2.23;;;;;;;23.00;46.06;101809.69;5028262;28;20178;-70
2021/06/25 03:58:39;;;;;;;3.43;1.70;;;;;;;22.99;46.45;101807.97;5029672;28;20155;-70
2021/06/25 04:01:05;;;;;;;2.47;1.80;;;;;;;22.98;46.25;101811.47;5028055;28;20210;-71
2021/06/25 04:03:30;;;;;;;2.40;1.80;;;;;;;22.98;46.01;101807.09;5029674;28;20225;-71
2021/06/25 04:05:55;;;;;;;5.07;2.10;;;;;;;22.99;46.00;101807.97;5029660;28;20179;-70
2021/06/25 04:08:23;;;;;;;3.03;2.20;;;;;;;22.99;45.99;101805.34;5029375;28;20201;-70
2021/06/25 04:10:48;;;;;;;2.97;2.03;;;;;;;22.99;46.23;101802.75;5027853;28;20691;-72
2021/06/25 04:13:13;;;;;;;1.77;1.43;;;;;;;22.97;46.30;101791.47;5029674;28;20253;-70
2021/06/25 04:15:39;;;;;;;2.73;1.87;;;;;;;22.97;46.44;101784.47;5028483;28;20643;-68
2021/06/25 04:18:04;;;;;;;2.43;2.23;;;;;;;22.99;46.09;101781.84;5028326;28;20179;-68
2021/06/25 04:20:29;;;;;;;2.00;1.80;;;;;;;22.98;46.09;101794.03;5029268;28;20248;-68
2021/06/25 04:22:55;;;;;;;2.90;2.03;;;;;;;22.98;46.13;101786.19;5029264;28;20238;-68
2021/06/25 04:25:20;;;;;;;2.50;2.10;;;;;;;22.97;46.15;101776.63;5029352;28;20217;-69
2021/06/25 04:27:45;;;;;;;2.23;1.97;;;;;;;22.98;46.45;101778.34;5029246;28;20193;-69
2021/06/25 04:30:12;;;;;;;3.67;2.23;;;;;;;22.99;46.29;101774.00;5032444;28;20284;-69
2021/06/25 04:32:39;;;;;;;2.33;2.03;;;;;;;22.98;46.32;101775.72;5032999;28;20193;-69
2021/06/25 04:35:05;;;;;;;3.83;2.37;;;;;;;22.97;46.20;101768.78;5032845;28;20666;-69
2021/06/25 04:37:30;;;;;;;3.37;2.30;;;;;;;22.97;46.30;101771.41;5032635;28;20178;-69
2021/06/25 04:39:55;;;;;;;2.53;1.80;;;;;;;22.96;46.26;101767.06;5031144;28;20202;-69
2021/06/25 04:42:21;;;;;;;4.47;2.23;;;;;;;22.97;46.42;101767.94;5032720;28;20183;-69
2021/06/25 04:44:46;;;;;;;2.47;2.23;;;;;;;22.96;46.16;101764.47;5032661;28;20577;-68
2021/06/25 04:47:11;;;;;;;2.73;2.23;;;;;;;22.96;46.45;101767.06;5032739;28;20186;-70
2021/06/25 04:49:38;;;;;;;3.13;1.97;;;;;;;22.97;46.37;101770.56;5032223;28;20206;-69
2021/06/25 04:52:04;;;;;;;2.63;2.03;;;;;;;22.96;46.21;101772.28;5032383;28;20228;-68
2021/06/25 04:54:29;;;;;;;2.20;2.00;;;;;;;22.98;46.24;101772.28;5032436;28;20913;-68
2021/06/25 04:56:54;;;;;;;3.43;2.30;;;;;;;22.96;46.31;101769.69;5032562;28;20194;-69
2021/06/25 04:59:19;;;;;;;2.77;2.10;;;;;;;22.97;46.21;101768.78;5030927;28;20190;-68
2021/06/25 05:01:45;;;;;;;2.80;2.13;;;;;;;22.98;46.22;101783.56;5031014;28;20183;-69
2021/06/25 05:04:10;;;;;;;8.20;2.53;;;;;;;22.97;46.55;101779.25;5032418;28;20193;-69
2021/06/25 05:06:35;;;;;;;3.23;2.10;;;;;;;22.97;46.48;101781.84;5032194;28;20174;-69
2021/06/25 05:09:00;;;;;;;2.17;1.97;;;;;;;22.98;46.05;101780.97;5031869;28;20198;-68
2021/06/25 05:11:26;;;;;;;2.90;2.23;;;;;;;22.99;46.43;101779.22;5030832;28;20217;-69
2021/06/25 05:13:51;;;;;;;3.27;2.20;;;;;;;22.99;46.18;101777.50;5032282;28;20662;-69
2021/06/25 05:16:16;;;;;;;3.57;2.30;;;;;;;22.99;46.50;101776.59;5032155;28;20186;-69
2021/06/25 05:18:42;;;;;;;3.20;2.33;;;;;;;22.99;46.52;101771.38;5031941;28;20232;-68
2021/06/25 05:21:07;;;;;;;2.97;2.30;;;;;;;23.00;46.31;101770.50;5030597;28;20194;-69
2021/06/25 05:23:34;;;;;;;2.40;2.20;;;;;;;23.00;46.87;101775.72;5032021;28;20190;-69
2021/06/25 05:25:59;;;;;;;4.23;2.60;;;;;;;23.00;46.07;101778.31;5032103;28;20666;-69
2021/06/25 05:28:24;;;;;;;3.43;2.40;;;;;;;22.99;46.17;101781.84;5032236;28;20257;-69
2021/06/25 05:30:49;;;;;;;3.93;2.10;;;;;;;23.00;46.50;101786.16;5032056;28;20206;-68
2021/06/25 05:33:15;;;;;;;3.57;2.10;;;;;;;22.99;46.46;101793.16;5036918;28;20186;-69
2021/06/25 05:35:40;;;;;;;5.43;2.30;;;;;;;23.00;46.39;101796.63;5032539;28;20268;-68
2021/06/25 05:38:13;;;;;;;3.27;2.17;;;;;;;23.00;46.62;101800.13;5031831;28;20237;-68
2021/06/25 05:40:39;;;;;;;4.30;2.47;;;;;;;23.01;46.34;101804.44;5030842;28;20217;-69
2021/06/25 05:43:05;;;;;;;7.13;2.43;;;;;;;23.01;46.48;101799.22;5031708;28;20194;-68
2021/06/25 05:45:32;;;;;;;5.13;2.40;;;;;;;23.03;46.56;101807.91;5031607;28;20181;-68
2021/06/25 05:47:57;;;;;;;3.47;2.40;;;;;;;23.03;46.47;101807.03;5031588;28;20210;-68
2021/06/25 05:50:23;;;;;;;2.53;2.33;;;;;;;23.04;46.30;101806.13;5030987;28;20242;-68
2021/06/25 05:52:48;;;;;;;3.60;2.63;;;;;;;23.04;46.49;101803.53;5031435;28;20182;-68
2021/06/25 05:55:14;;;;;;;4.40;2.30;;;;;;;23.05;46.58;101811.34;5031008;28;20210;-68
2021/06/25 05:57:40;;;;;;;4.13;2.50;;;;;;;23.24;46.33;101810.19;5021085;28;20208;-68
2021/06/25 06:00:07;;;;;;;7.43;2.70;;;;;;;23.95;44.73;101812.41;5017821;28;20210;-68
2021/06/25 06:02:32;;;;;;;2.67;2.47;;;;;;;24.27;44.24;101809.94;5029897;28;20590;-69
2021/06/25 06:04:58;;;;;;;2.50;2.30;;;;;;;24.21;44.00;101810.09;5030326;28;20186;-68
2021/06/25 06:07:23;;;;;;;3.63;2.70;;;;;;;24.00;44.91;101817.53;5031396;28;20213;-70
2021/06/25 06:09:49;;;;;;;3.40;2.60;;;;;;;23.92;44.71;101815.06;5031006;28;20220;-69
2021/06/25 06:12:14;;;;;;;3.07;2.40;;;;;;;23.87;44.89;101813.38;5031677;28;20206;-69
2021/06/25 06:14:39;;;;;;;3.80;2.83;;;;;;;23.85;44.67;101823.88;5033467;28;20189;-69
2021/06/25 06:17:04;;;;;;;6.23;3.43;;;;;;;24.01;44.55;101816.63;5031364;28;20182;-70
2021/06/25 06:19:38;;;;;;;5.07;2.83;;;;;;;23.93;44.86;101819.41;5030390;28;20175;-68
2021/06/25 06:33:03;;;;;;;8.40;5.07;;;;;;;23.67;44.69;101828.59;5037112;28;20487;-72
2021/06/25 06:35:28;;;;;;;7.40;4.47;;;;;;;23.71;45.37;101831.13;5036887;28;20170;-73
2021/06/25 06:38:00;;;;;;;3.90;3.27;;;;;;;23.67;44.84;101828.59;5040086;28;20809;-73
2021/06/25 06:40:26;;;;;;;3.90;3.50;;;;;;;23.71;44.46;101832.91;5039086;28;20202;-75
2021/06/25 06:42:51;;;;;;;5.47;3.50;;;;;;;23.74;44.80;101836.31;5038507;28;20186;-74
2021/06/25 06:45:17;;;;;;;4.63;3.47;;;;;;;23.73;44.81;101834.59;5038081;28;20242;-72
2021/06/25 06:47:43;;;;;;;4.93;3.30;;;;;;;23.70;45.23;101842.50;5037386;28;20185;-71
2021/06/25 06:50:09;;;;;;;4.37;3.33;;;;;;;23.67;45.23;101844.31;5035938;28;20238;-73
2021/06/25 06:52:34;;;;;;;5.33;3.47;;;;;;;23.71;45.13;101836.34;5035789;28;20612;-72
2021/06/25 06:54:59;;;;;;;5.83;3.53;;;;;;;23.69;45.04;101842.50;5035715;28;20194;-72
2021/06/25 06:57:25;;;;;;;4.50;3.77;;;;;;;23.69;45.17;101832.03;5034704;28;20227;-72
2021/06/25 06:59:50;;;;;;;6.70;3.53;;;;;;;23.68;44.91;101833.81;5026174;28;20304;-72
2021/06/25 07:02:15;;;;;;;4.93;3.20;;;;;;;23.64;45.20;101837.38;5031915;28;20647;-73
2021/06/25 07:04:40;;;;;;;3.23;2.90;;;;;;;23.63;45.39;101838.28;5029212;28;20179;-74
2021/06/25 07:07:06;;;;;;;4.07;3.20;;;;;;;23.65;45.57;101833.00;5030803;28;20183;-73
2021/06/25 07:09:31;;;;;;;5.03;2.57;;;;;;;23.76;44.85;101833.66;5029553;28;20344;-73
2021/06/25 07:11:58;;;;;;;4.30;2.90;;;;;;;23.73;44.93;101826.75;5030755;28;20706;-73
2021/06/25 07:14:23;;;;;;;3.53;2.90;;;;;;;23.71;45.07;101830.28;5029602;28;20261;-73
2021/06/25 07:16:48;;;;;;;3.97;3.07;;;;;;;23.68;44.83;101831.22;5030719;28;20920;-74
2021/06/25 07:19:15;;;;;;;3.17;2.90;;;;;;;23.68;44.84;101825.09;5029158;28;20186;-72
2021/06/25 07:21:40;;;;;;;3.50;3.00;;;;;;;23.68;45.12;101832.94;5028241;28;20193;-74
2021/06/25 07:24:06;;;;;;;3.60;3.10;;;;;;;23.62;44.93;101826.06;5029551;28;20186;-72
2021/06/25 07:26:31;;;;;;;3.97;3.20;;;;;;;23.60;45.17;101830.47;5030513;28;20174;-70
2021/06/25 07:28:57;;;;;;;3.30;3.00;;;;;;;23.58;44.54;101832.22;5030790;28;20181;-70
2021/06/25 07:31:22;;;;;;;4.00;3.60;;;;;;;23.53;44.55;101831.47;5035789;28;20198;-70
2021/06/25 07:33:47;;;;;;;4.43;3.50;;;;;;;23.51;44.35;101822.78;5031861;28;20608;-71
2021/06/25 07:36:13;;;;;;;5.27;3.80;;;;;;;23.51;44.32;101821.91;5031977;28;20185;-71
2021/06/25 07:38:39;;;;;;;4.13;3.80;;;;;;;23.46;44.11;101814.16;5030866;28;20269;-67
2021/06/25 07:41:04;;;;;;;5.93;3.77;;;;;;;23.45;44.08;101816.81;5029430;28;20218;-69
2021/06/25 07:43:29;;;;;;;4.03;3.63;;;;;;;23.41;44.75;101820.34;5030548;28;20924;-69
2021/06/25 07:45:54;;;;;;;4.17;3.77;;;;;;;23.38;44.34;101820.44;5030526;28;20187;-68
2021/06/25 07:48:20;;;;;;;5.47;3.80;;;;;;;23.37;43.83;101816.06;5029139;28;20187;-68
2021/06/25 07:50:45;;;;;;;5.40;3.80;;;;;;;23.39;43.77;101814.31;5030415;28;20861;-71
2021/06/25 07:53:10;;;;;;;5.50;3.60;;;;;;;23.40;43.79;101811.66;5030301;28;20178;-68
2021/06/25 07:55:42;;;;;;;4.57;3.87;;;;;;;23.48;43.96;101814.16;5030645;28;20436;-68
2021/06/25 07:58:10;;;;;;;4.78;4.10;;;;;;;23.54;43.17;101809.66;5015410;28;20444;-68
2021/06/25 08:00:35;;;;;;;4.17;3.70;;;;;;;23.55;43.32;101808.78;5030514;28;20271;-74
2021/06/25 08:03:00;;;;;;;5.80;3.93;;;;;;;23.53;43.56;101818.38;5032029;28;20269;-72
2021/06/25 08:05:25;;;;;;;4.53;3.37;;;;;;;23.53;43.93;101815.75;5032585;28;20183;-72
2021/06/25 08:07:50;;;;;;;5.03;3.43;;;;;;;23.53;43.92;101817.53;5033603;28;20806;-71
2021/06/25 08:10:16;;;;;;;4.10;3.70;;;;;;;23.53;43.53;101820.16;5033645;28;20241;-73
2021/06/25 08:12:41;;;;;;;4.10;3.50;;;;;;;23.52;43.49;101813.19;5032449;28;20265;-69
2021/06/25 08:15:07;;;;;;;4.70;3.80;;;;;;;23.50;43.34;101813.22;5033402;28;20177;-73
2021/06/25 08:17:32;;;;;;;4.10;3.67;;;;;;;23.49;43.19;101808.88;5033064;28;20261;-71
2021/06/25 08:19:58;;;;;;;3.53;3.23;;;;;;;23.50;43.60;101809.72;5034545;28;20559;-73
2021/06/25 08:22:23;;;;;;;3.97;3.47;;;;;;;23.66;42.76;101813.81;5032645;28;20293;-73
2021/06/25 08:24:48;;;;;;;3.90;3.40;;;;;;;23.67;43.27;101807.69;5035252;28;20209;-74
2021/06/25 08:27:14;;;;;;;4.40;3.40;;;;;;;23.65;43.44;101812.06;5033723;28;20620;-74
2021/06/25 08:29:39;;;;;;;3.90;3.40;;;;;;;23.68;43.31;101823.34;5031856;28;20214;-72
2021/06/25 08:32:05;;;;;;;6.87;3.10;;;;;;;23.66;43.30;101819.88;5033418;28;20592;-73
2021/06/25 08:34:31;;;;;;;3.50;3.20;;;;;;;23.65;43.07;101820.78;5032020;28;20186;-75
2021/06/25 08:36:56;;;;;;;3.10;2.80;;;;;;;23.64;43.16;101813.84;5032678;28;20178;-73
2021/06/25 08:39:25;;;;;;;3.13;2.90;;;;;;;23.62;43.11;101807.75;5032897;28;20178;-73
2021/06/25 08:41:51;;;;;;;3.43;3.13;;;;;;;23.71;43.39;101806.72;5033336;28;20197;-71
2021/06/25 08:44:16;;;;;;;3.27;2.97;;;;;;;23.70;43.02;101811.09;5031850;28;20178;-73
2021/06/25 08:46:46;;;;;;;3.00;2.80;;;;;;;23.69;42.92;101808.50;5032768;28;20236;-71
2021/06/25 08:49:15;;;;;;;2.77;2.47;;;;;;;23.69;42.87;101805.88;5031190;28;20563;-75
2021/06/25 08:51:40;;;;;;;3.20;2.83;;;;;;;23.64;42.84;101800.75;5031363;28;20289;-74
2021/06/25 08:54:05;;;;;;;3.60;2.67;;;;;;;23.63;43.00;101800.78;5032995;28;20224;-73
2021/06/25 08:56:32;;;;;;;3.10;2.80;;;;;;;23.62;43.11;101793.81;5033041;28;20183;-73
2021/06/25 08:59:00;;;;;;;2.93;2.63;;;;;;;23.61;43.04;101798.19;5018605;28;20234;-72
2021/06/25 09:01:26;;;;;;;5.27;3.10;;;;;;;23.70;43.06;101792.78;5031270;28;20256;-70
2021/06/25 09:03:53;;;;;;;2.97;2.67;;;;;;;23.73;42.76;101800.59;5032081;28;20180;-73
2021/06/25 09:06:18;;;;;;;3.47;2.80;;;;;;;23.78;42.78;101796.13;5032595;28;20670;-73
2021/06/25 09:08:44;;;;;;;3.43;2.60;;;;;;;23.83;42.76;101791.66;5031014;28;20194;-72
2021/06/25 09:11:25;;;;;;;3.50;3.03;;;;;;;23.84;42.66;101797.75;5026181;28;20222;-74
2021/06/25 09:14:03;;;;;;;3.77;2.80;;;;;;;23.87;42.85;101792.44;5022951;28;20556;-73
2021/06/25 09:16:30;;;;;;;2.93;2.67;;;;;;;23.83;42.86;101796.00;5032920;28;20178;-73
2021/06/25 09:19:16;;;;;;;3.47;2.53;;;;;;;23.85;42.93;101794.25;5032717;28;20279;-72
2021/06/25 09:21:57;;;;;;;3.30;2.57;;;;;;;23.86;42.81;101796.84;5032733;28;20179;-73
2021/06/25 09:24:27;;;;;;;3.20;2.57;;;;;;;23.88;43.16;101802.91;5029052;28;20187;-73
2021/06/25 09:27:04;;;;;;;3.10;2.40;;;;;;;23.88;42.97;101799.41;5032824;28;20288;-75
2021/06/25 09:29:40;;;;;;;3.63;2.90;;;;;;;23.92;42.33;101795.88;5032293;28;20285;-72
2021/06/25 09:32:11;;;;;;;3.33;2.83;;;;;;;23.91;41.60;101791.53;5035592;28;20174;-71
2021/06/25 09:34:48;;;;;;;3.77;2.50;;;;;;;23.95;41.87;101801.06;5032333;28;20204;-72
2021/06/25 09:37:16;;;;;;;3.50;2.30;;;;;;;23.99;41.63;101792.25;5032411;28;20174;-72
2021/06/25 09:39:58;;;;;;;2.90;2.60;;;;;;;23.96;41.01;101790.56;5031880;28;20662;-71
2021/06/25 09:42:24;;;;;;;2.73;2.27;;;;;;;23.91;41.07;101802.00;5031720;28;20557;-71
2021/06/25 09:45:19;;;;;;;3.10;2.57;;;;;;;23.86;41.28;101799.47;5031859;28;20190;-71
2021/06/25 09:47:52;;;;;;;3.70;2.60;;;;;;;23.85;40.65;101807.34;5017862;28;20229;-71
2021/06/25 09:50:19;;;;;;;3.10;2.40;;;;;;;23.86;40.59;101806.44;5030446;28;20852;-70
2021/06/25 09:52:53;;;;;;;2.50;2.30;;;;;;;23.85;40.82;101802.94;5031727;28;20178;-71
2021/06/25 09:55:26;;;;;;;2.93;2.40;;;;;;;23.86;40.48;101804.69;5031566;28;20180;-71
2021/06/25 10:03:39;;;;;;;4.03;2.50;;;;;;;23.75;40.09;101795.31;5031881;28;20189;-70
2021/06/25 10:06:13;;;;;;;2.63;2.30;;;;;;;23.77;40.11;101798.75;5031748;28;20173;-72
2021/06/25 10:08:40;;;;;;;2.67;2.30;;;;;;;23.81;40.08;101790.81;5031350;28;20280;-71
2021/06/25 10:11:06;;;;;;;2.67;2.47;;;;;;;23.84;39.88;101788.13;5031441;28;20264;-72
2021/06/25 10:13:34;;;;;;;3.63;2.30;;;;;;;23.85;40.26;101787.25;5031493;28;20183;-71
2021/06/25 10:16:00;;;;;;;3.70;2.57;;;;;;;23.85;39.81;101782.00;5031326;28;20175;-71
2021/06/25 10:18:29;;;;;;;3.13;2.60;;;;;;;23.88;40.35;101775.84;5030951;28;20179;-71
2021/06/25 10:20:56;;;;;;;2.60;2.00;;;;;;;23.92;40.17;101772.31;5030886;28;20932;-71
2021/06/25 10:23:23;;;;;;;2.50;2.30;;;;;;;23.90;40.22;101776.72;5029967;28;20178;-72
2021/06/25 10:25:50;;;;;;;2.57;2.07;;;;;;;23.89;39.84;101773.22;5031828;28;20186;-70
2021/06/25 10:28:18;;;;;;;3.60;2.50;;;;;;;23.91;40.61;101775.81;5031311;28;20185;-71
2021/06/25 10:30:44;;;;;;;3.03;2.30;;;;;;;23.91;40.22;101781.06;5030907;28;20225;-72
2021/06/25 10:33:10;;;;;;;4.07;3.00;;;;;;;23.90;40.15;101777.56;5030188;28;20637;-71
2021/06/25 10:35:36;;;;;;;2.50;2.20;;;;;;;23.92;40.14;101781.03;5031245;28;20241;-71
2021/06/25 10:38:01;;;;;;;3.37;2.27;;;;;;;23.90;40.44;101785.44;5030873;28;20186;-71
2021/06/25 10:40:27;;;;;;;3.37;2.47;;;;;;;23.89;40.48;101781.06;5030914;28;20191;-71
2021/06/25 10:42:54;;;;;;;2.93;2.50;;;;;;;23.92;40.69;101782.78;5031113;28;20179;-71
2021/06/25 10:45:37;;;;;;;2.20;2.00;;;;;;;23.93;41.26;101788.00;5029748;28;20538;-68
2021/06/25 10:48:02;;;;;;;2.50;2.17;;;;;;;23.97;41.42;101780.94;5029213;28;20248;-70
2021/06/25 10:50:28;;;;;;;2.70;2.27;;;;;;;23.99;41.18;101782.63;5030685;28;20229;-70
2021/06/25 10:53:09;;;;;;;2.90;2.70;;;;;;;23.99;40.82;101787.00;5030826;28;20602;-70
2021/06/25 10:55:45;;;;;;;3.27;2.90;;;;;;;23.95;40.32;101780.13;5030842;28;20643;-70
2021/06/25 10:58:18;;;;;;;5.40;3.40;;;;;;;23.98;40.22;101785.31;5030605;28;20189;-71
2021/06/25 11:00:45;;;;;;;2.83;2.47;;;;;;;24.01;39.92;101778.25;5008833;28;20284;-73
2021/06/25 11:03:36;;;;;;;3.03;2.73;;;;;;;24.01;39.92;101774.75;5030584;28;20183;-72
2021/06/25 11:06:05;;;;;;;2.73;2.43;;;;;;;23.98;40.14;101778.28;5025967;28;20295;-73
2021/06/25 11:08:31;;;;;;;3.00;2.70;;;;;;;24.01;40.55;101774.75;5029314;28;20197;-71
2021/06/25 11:10:58;;;;;;;3.20;2.60;;;;;;;23.98;40.32;101778.28;5029770;28;20209;-73
2021/06/25 11:13:28;;;;;;;3.27;2.90;;;;;;;23.96;39.91;101776.59;5030039;28;20186;-73
2021/06/25 11:16:03;;;;;;;2.63;2.43;;;;;;;23.95;39.92;101775.75;5028977;28;20636;-73
2021/06/25 11:18:30;;;;;;;3.00;2.77;;;;;;;23.94;39.58;101765.31;5028812;28;20565;-73
2021/06/25 11:20:55;;;;;;;2.93;2.73;;;;;;;23.92;40.20;101760.09;5029868;28;20607;-75
2021/06/25 11:23:26;;;;;;;3.13;2.80;;;;;;;23.92;40.31;101760.09;5028409;28;20193;-74
2021/06/25 11:26:03;;;;;;;2.97;2.37;;;;;;;23.96;41.23;101758.28;5028623;28;20217;-73
2021/06/25 11:28:40;;;;;;;4.37;3.20;;;;;;;23.95;40.52;101757.44;5030439;28;20679;-74
2021/06/25 11:31:21;;;;;;;7.30;3.03;;;;;;;23.95;40.64;101753.94;5035355;28;20205;-73
2021/06/25 11:33:54;;;;;;;3.47;3.13;;;;;;;23.94;40.35;101750.44;5030490;28;20166;-73
2021/06/25 11:36:31;;;;;;;3.37;2.97;;;;;;;23.92;40.88;101757.47;5027950;28;20686;-73
2021/06/25 11:39:13;;;;;;;3.70;3.10;;;;;;;23.92;40.51;101764.47;5032004;28;20190;-74
2021/06/25 11:41:44;;;;;;;3.27;2.97;;;;;;;23.85;40.21;101758.44;5034503;28;20162;-73